sensor_id;sensor_type;location;lat;lon;timestamp;P1;durP1;ratioP1;P2;durP2;ratioP2
3735;SDS011;1883;48.202;16.310;2023-05-07T01:45:31;16.50;;;7.63;;
3735;SDS011;1883;48.202;16.310;2023-05-07T01:48:00;12.00;;;4.63;;
3735;SDS011;1883;48.202;16.310;2023-05-07T01:50:28;11.57;;;4.50;;
3735;SDS011;1883;48.202;16.310;2023-05-07T01:52:55;11.30;;;3.73;;
3735;SDS011;1883;48.202;16.310;2023-05-07T01:55:22;7.63;;;3.80;;
3735;SDS011;1883;48.202;16.310;2023-05-07T01:57:49;14.57;;;5.17;;
3735;SDS011;1883;48.202;16.310;2023-05-07T02:00:19;9.23;;;4.23;;
3735;SDS011;1883;48.202;16.310;2023-05-07T02:35:13;11.40;;;5.70;;
3735;SDS011;1883;48.202;16.310;2023-05-07T02:37:40;14.60;;;5.80;;
3735;SDS011;1883;48.202;16.310;2023-05-07T02:40:08;12.10;;;5.90;;
3735;SDS011;1883;48.202;16.310;2023-05-07T02:42:36;13.60;;;6.70;;
3735;SDS011;1883;48.202;16.310;2023-05-07T02:45:03;10.50;;;5.57;;
3735;SDS011;1883;48.202;16.310;2023-05-07T02:47:31;13.63;;;6.97;;
3735;SDS011;1883;48.202;16.310;2023-05-07T02:49:58;14.00;;;6.80;;
3735;SDS011;1883;48.202;16.310;2023-05-07T02:52:26;16.47;;;7.00;;
3735;SDS011;1883;48.202;16.310;2023-05-07T02:54:53;13.10;;;7.47;;
3735;SDS011;1883;48.202;16.310;2023-05-07T02:57:20;14.73;;;7.03;;
3735;SDS011;1883;48.202;16.310;2023-05-07T02:59:47;14.93;;;7.27;;
3735;SDS011;1883;48.202;16.310;2023-05-07T03:02:13;19.80;;;8.57;;
3735;SDS011;1883;48.202;16.310;2023-05-07T03:07:16;18.27;;;8.77;;
3735;SDS011;1883;48.202;16.310;2023-05-07T03:09:44;17.87;;;9.10;;
3735;SDS011;1883;48.202;16.310;2023-05-07T03:12:11;20.60;;;10.77;;
3735;SDS011;1883;48.202;16.310;2023-05-07T03:14:38;21.30;;;10.23;;
3735;SDS011;1883;48.202;16.310;2023-05-07T03:17:05;33.30;;;12.80;;
3735;SDS011;1883;48.202;16.310;2023-05-07T03:19:32;43.27;;;16.40;;
3735;SDS011;1883;48.202;16.310;2023-05-07T03:21:59;35.83;;;14.47;;
3735;SDS011;1883;48.202;16.310;2023-05-07T03:24:26;28.00;;;12.83;;
3735;SDS011;1883;48.202;16.310;2023-05-07T03:30:15;32.97;;;12.83;;
3735;SDS011;1883;48.202;16.310;2023-05-07T03:32:42;26.83;;;12.80;;
3735;SDS011;1883;48.202;16.310;2023-05-07T03:35:09;28.00;;;13.40;;
3735;SDS011;1883;48.202;16.310;2023-05-07T03:37:36;28.97;;;14.77;;
3735;SDS011;1883;48.202;16.310;2023-05-07T03:40:04;30.23;;;15.43;;
3735;SDS011;1883;48.202;16.310;2023-05-07T03:42:31;34.93;;;15.60;;
3735;SDS011;1883;48.202;16.310;2023-05-07T03:44:58;28.07;;;14.30;;
3735;SDS011;1883;48.202;16.310;2023-05-07T03:47:27;31.43;;;14.77;;
3735;SDS011;1883;48.202;16.310;2023-05-07T03:49:54;33.87;;;16.03;;
3735;SDS011;1883;48.202;16.310;2023-05-07T03:52:21;31.40;;;15.90;;
3735;SDS011;1883;48.202;16.310;2023-05-07T03:54:51;34.40;;;16.53;;
3735;SDS011;1883;48.202;16.310;2023-05-07T03:57:18;35.17;;;16.90;;
3735;SDS011;1883;48.202;16.310;2023-05-07T03:59:45;33.17;;;17.73;;
3735;SDS011;1883;48.202;16.310;2023-05-07T04:02:14;40.90;;;17.90;;
3735;SDS011;1883;48.202;16.310;2023-05-07T23:28:32;31.23;;;11.70;;
3735;SDS011;1883;48.202;16.310;2023-05-07T23:30:59;32.13;;;14.20;;
3735;SDS011;1883;48.202;16.310;2023-05-07T23:33:26;32.83;;;14.60;;
3735;SDS011;1883;48.202;16.310;2023-05-07T23:35:59;29.60;;;13.20;;
3735;SDS011;1883;48.202;16.310;2023-05-07T23:38:27;29.17;;;12.20;;
3735;SDS011;1883;48.202;16.310;2023-05-07T23:40:54;23.33;;;10.67;;
3735;SDS011;1883;48.202;16.310;2023-05-07T23:43:21;31.37;;;13.77;;
3735;SDS011;1883;48.202;16.310;2023-05-07T23:45:49;33.50;;;14.90;;
3735;SDS011;1883;48.202;16.310;2023-05-07T23:48:16;28.50;;;14.10;;
3735;SDS011;1883;48.202;16.310;2023-05-07T23:50:43;26.37;;;12.17;;
3735;SDS011;1883;48.202;16.310;2023-05-07T23:53:10;31.47;;;14.67;;
3735;SDS011;1883;48.202;16.310;2023-05-07T23:55:37;28.20;;;14.17;;
3735;SDS011;1883;48.202;16.310;2023-05-07T23:58:04;27.20;;;12.60;;
